Time;durP1;ratioP1;P1;durP2;ratioP2;P2;SDS_P1;SDS_P2;PMS_P1;PMS_P2;Temp;Humidity;BMP_temperature;BMP_pressure;BME280_temperature;BME280_humidity;BME280_pressure;Samples;Min_cycle;Max_cycle;Signal;HPM_P1;HPM_P2
2021/10/21 00:02:09;;;;;;;31.67;19.17;;;;;;;11.28;62.17;100860.11;126254;1099;104673;-79
2021/10/21 00:04:37;;;;;;;33.27;19.87;;;;;;;11.28;62.05;100853.14;126324;1098;104149;-79
2021/10/21 00:07:06;;;;;;;36.17;20.43;;;;;;;11.27;62.23;100859.22;126337;1099;104255;-78
2021/10/21 00:09:34;;;;;;;34.65;19.65;;;;;;;11.26;62.20;100860.05;126313;1097;104155;-79
2021/10/21 00:12:03;;;;;;;33.23;19.80;;;;;;;11.25;62.38;100859.98;126368;1098;104153;-78
2021/10/21 00:14:31;;;;;;;35.00;20.30;;;;;;;11.23;62.25;100846.80;126334;1099;104329;-78
2021/10/21 00:16:59;;;;;;;33.97;19.70;;;;;;;11.21;62.26;100847.59;126353;1099;104152;-78
2021/10/21 00:19:27;;;;;;;34.67;19.97;;;;;;;11.21;62.54;100839.71;126263;1099;104143;-78
2021/10/21 00:21:56;;;;;;;33.70;20.33;;;;;;;11.19;62.51;100844.91;126339;1099;104283;-78
2021/10/21 00:24:23;;;;;;;32.50;19.80;;;;;;;11.18;62.50;100837.85;126310;1099;104381;-80
2021/10/21 00:26:51;;;;;;;34.43;20.40;;;;;;;11.15;62.60;100832.48;126271;1099;104178;-78
2021/10/21 00:29:19;;;;;;;34.60;20.13;;;;;;;11.14;62.35;100826.34;126275;1099;104274;-78
2021/10/21 00:31:47;;;;;;;33.63;19.20;;;;;;;11.12;62.44;100822.73;126348;1097;104149;-78
2021/10/21 00:34:17;;;;;;;32.30;19.33;;;;;;;11.10;62.67;100813.92;126301;1099;104165;-78
2021/10/21 00:36:45;;;;;;;35.33;20.33;;;;;;;11.08;62.86;100812.98;126322;1098;104146;-78
2021/10/21 00:39:14;;;;;;;33.17;19.60;;;;;;;11.06;63.22;100809.38;126310;1099;104187;-78
2021/10/21 00:41:42;;;;;;;33.17;19.67;;;;;;;11.04;62.98;100797.04;126286;1099;104255;-78
2021/10/21 00:44:12;;;;;;;30.60;18.87;;;;;;;11.01;63.29;100789.92;126301;1099;104219;-77
2021/10/21 00:46:41;;;;;;;34.03;20.27;;;;;;;11.01;63.37;100791.67;126311;1099;104268;-77
2021/10/21 00:49:10;;;;;;;33.73;20.37;;;;;;;10.99;63.17;100791.61;126330;1099;104274;-77
2021/10/21 00:51:39;;;;;;;31.67;18.70;;;;;;;10.97;63.22;100781.05;126294;1099;104219;-77
2021/10/21 00:54:08;;;;;;;34.63;20.43;;;;;;;10.96;63.46;100780.98;126322;1099;104208;-78
2021/10/21 00:56:39;;;;;;;31.03;19.33;;;;;;;10.96;63.09;100775.73;126345;1099;104216;-78
2021/10/21 00:59:09;;;;;;;34.70;20.85;;;;;;;10.93;63.21;100772.99;126369;1099;104265;-78
2021/10/21 01:01:37;;;;;;;33.57;20.50;;;;;;;10.91;63.62;100770.30;126178;1099;104223;-78
2021/10/21 01:04:06;;;;;;;34.67;19.80;;;;;;;10.89;63.61;100769.36;126319;1098;104137;-79
2021/10/21 01:06:35;;;;;;;31.27;19.40;;;;;;;10.86;63.74;100765.70;126306;1099;104929;-78
2021/10/21 01:09:07;;;;;;;36.23;20.70;;;;;;;10.84;63.90;100767.38;126340;1099;104136;-78
2021/10/21 01:11:38;;;;;;;35.70;20.73;;;;;;;10.84;63.96;100772.63;126304;1098;104162;-78
2021/10/21 01:14:06;;;;;;;35.20;20.60;;;;;;;10.84;63.82;100775.27;126347;1099;104182;-78
2021/10/21 01:16:39;;;;;;;34.67;20.53;;;;;;;10.83;63.92;100770.83;126306;1099;104188;-78
2021/10/21 01:19:15;;;;;;;35.23;20.10;;;;;;;10.82;63.72;100762.08;126347;1099;104149;-78
2021/10/21 01:21:45;;;;;;;33.60;20.37;;;;;;;10.84;63.53;100767.38;126299;1099;104137;-78
2021/10/21 01:24:13;;;;;;;33.03;20.30;;;;;;;10.83;63.80;100778.70;126383;1099;104337;-78
2021/10/21 01:26:44;;;;;;;33.50;19.67;;;;;;;10.83;63.86;100778.70;126338;1098;104288;-78
2021/10/21 01:29:12;;;;;;;33.60;21.20;;;;;;;10.83;63.71;100777.00;126318;1099;104265;-77
2021/10/21 01:31:42;;;;;;;33.37;19.90;;;;;;;10.82;63.65;100776.94;126240;1099;104226;-79
2021/10/21 01:34:11;;;;;;;35.00;20.70;;;;;;;10.82;64.33;100764.70;126321;1099;104266;-79
2021/10/21 01:36:41;;;;;;;34.63;20.50;;;;;;;10.81;64.04;100762.02;126317;1099;104152;-79
2021/10/21 01:39:12;;;;;;;33.73;20.03;;;;;;;10.79;64.41;100767.20;126375;1096;104243;-78
2021/10/21 01:41:40;;;;;;;34.70;20.80;;;;;;;10.78;64.16;100771.57;126192;1098;104200;-79
2021/10/21 01:44:08;;;;;;;33.40;20.97;;;;;;;10.78;64.18;100762.78;126247;1099;104149;-78
2021/10/21 01:46:37;;;;;;;36.27;21.47;;;;;;;10.78;64.45;100766.32;126377;1099;104175;-78
2021/10/21 01:49:05;;;;;;;37.27;20.83;;;;;;;10.78;64.38;100768.95;126374;1099;104140;-78
2021/10/21 01:51:35;;;;;;;34.60;21.63;;;;;;;10.76;64.30;100770.59;126285;1099;104142;-77
2021/10/21 01:54:02;;;;;;;33.37;21.60;;;;;;;10.75;64.57;100757.41;126314;1099;104325;-78
2021/10/21 01:56:31;;;;;;;36.63;21.47;;;;;;;10.75;64.51;100749.53;126341;1098;104277;-78
2021/10/21 01:58:59;;;;;;;35.10;21.13;;;;;;;10.75;64.50;100755.70;126363;1098;104197;-78
2021/10/21 02:01:27;;;;;;;33.63;20.70;;;;;;;10.75;64.81;100747.83;126255;1098;104265;-78
2021/10/21 02:03:55;;;;;;;35.40;21.55;;;;;;;10.75;64.91;100745.20;126310;1096;104147;-78
2021/10/21 02:06:24;;;;;;;33.70;21.23;;;;;;;10.73;64.49;100738.98;126302;1099;104149;-79
2021/10/21 02:08:52;;;;;;;35.07;21.17;;;;;;;10.73;64.91;100738.09;126293;1099;104223;-79
2021/10/21 02:11:20;;;;;;;35.70;21.53;;;;;;;10.72;64.96;100739.83;126288;1099;104191;-78
2021/10/21 02:13:50;;;;;;;32.67;20.83;;;;;;;10.71;64.79;100743.28;126355;1099;105289;-78
2021/10/21 02:16:19;;;;;;;35.13;21.40;;;;;;;10.70;65.06;100743.22;126321;1098;104223;-78
2021/10/21 02:18:47;;;;;;;33.55;21.40;;;;;;;10.69;65.20;100733.55;126314;1096;104294;-78
2021/10/21 02:21:15;;;;;;;33.17;21.43;;;;;;;10.66;65.29;100734.34;126371;1099;104140;-78
2021/10/21 02:23:44;;;;;;;34.33;21.17;;;;;;;10.65;65.07;100735.17;126315;1099;104195;-78
2021/10/21 02:26:12;;;;;;;37.60;21.27;;;;;;;10.63;65.11;100734.22;126367;1099;104566;-78
2021/10/21 02:28:40;;;;;;;35.37;22.57;;;;;;;10.60;64.78;100727.11;126358;1099;104270;-78
2021/10/21 02:31:08;;;;;;;36.40;22.07;;;;;;;10.58;65.28;100723.55;126271;1099;104222;-79
2021/10/21 02:33:35;;;;;;;35.43;21.63;;;;;;;10.57;65.50;100716.50;126285;1097;104281;-78
2021/10/21 02:36:04;;;;;;;35.87;21.90;;;;;;;10.57;64.97;100718.23;126354;1097;104162;-78
2021/10/21 02:38:32;;;;;;;35.80;22.47;;;;;;;10.56;65.35;100713.81;126346;1099;104271;-78
2021/10/21 02:41:00;;;;;;;36.33;22.27;;;;;;;10.54;65.43;100712.87;126351;1099;104155;-78
2021/10/21 02:43:28;;;;;;;33.50;20.90;;;;;;;10.53;65.59;100711.98;126192;1099;104313;-78
2021/10/21 02:45:56;;;;;;;37.40;21.97;;;;;;;10.50;65.42;100708.33;126348;1099;104275;-78
2021/10/21 02:48:24;;;;;;;36.67;21.80;;;;;;;10.48;65.19;100696.88;126328;1097;104169;-78
2021/10/21 02:50:52;;;;;;;36.87;21.23;;;;;;;10.47;65.51;100702.95;126335;1099;104153;-78
2021/10/21 02:53:20;;;;;;;34.53;21.37;;;;;;;10.45;65.66;100707.26;126317;1099;104313;-79
2021/10/21 02:55:48;;;;;;;33.87;20.80;;;;;;;10.43;65.70;100697.59;126285;1099;104299;-78
2021/10/21 02:58:16;;;;;;;35.20;21.27;;;;;;;10.43;65.29;100697.59;126379;1099;104169;-79
2021/10/21 03:00:44;;;;;;;35.73;20.90;;;;;;;10.42;65.67;100698.45;126372;1099;104322;-78
2021/10/21 03:03:11;;;;;;;33.37;20.20;;;;;;;10.41;65.85;100699.27;126306;1099;104194;-78
2021/10/21 03:05:39;;;;;;;33.63;19.93;;;;;;;10.41;65.48;100696.64;126327;1099;104329;-78
2021/10/21 03:08:07;;;;;;;35.00;19.40;;;;;;;10.39;66.10;100695.70;126321;1099;104322;-78
2021/10/21 03:10:35;;;;;;;32.97;20.03;;;;;;;10.38;65.66;100696.52;126355;1098;104223;-78
2021/10/21 03:13:03;;;;;;;33.57;20.30;;;;;;;10.38;66.07;100701.77;126268;1099;104281;-77
2021/10/21 03:15:31;;;;;;;32.33;20.67;;;;;;;10.39;66.10;100700.03;126355;1099;104261;-78
2021/10/21 03:17:59;;;;;;;31.40;18.17;;;;;;;10.40;65.93;100697.47;126365;1099;104155;-78
2021/10/21 03:20:27;;;;;;;32.53;19.07;;;;;;;10.39;66.19;100695.70;126281;1099;104220;-78
2021/10/21 03:22:54;;;;;;;33.63;19.70;;;;;;;10.40;65.97;100699.20;126269;1099;104168;-77
2021/10/21 03:25:22;;;;;;;30.87;19.13;;;;;;;10.40;66.01;100686.97;126332;1099;104281;-77
2021/10/21 03:27:50;;;;;;;31.00;18.40;;;;;;;10.41;66.07;100686.15;126352;1099;104191;-77
2021/10/21 03:30:18;;;;;;;33.03;18.90;;;;;;;10.41;66.25;100680.91;126339;1099;104573;-77
2021/10/21 03:32:46;;;;;;;32.37;19.23;;;;;;;10.42;66.16;100672.21;126317;1099;104291;-79
2021/10/21 03:35:14;;;;;;;33.30;19.53;;;;;;;10.42;66.41;100666.96;126321;1099;104176;-78
2021/10/21 03:37:42;;;;;;;30.47;18.37;;;;;;;10.43;66.08;100667.84;126317;1099;104344;-78
2021/10/21 03:40:12;;;;;;;31.97;18.83;;;;;;;10.41;66.06;100665.16;126319;1099;104213;-77
2021/10/21 03:42:40;;;;;;;33.23;19.63;;;;;;;10.40;66.70;100671.23;126339;1098;104157;-78
2021/10/21 03:45:09;;;;;;;34.57;20.63;;;;;;;10.38;66.09;100680.78;126263;1098;104155;-79
2021/10/21 03:47:37;;;;;;;33.13;19.23;;;;;;;10.34;66.59;100668.37;126360;1099;104160;-79
2021/10/21 03:50:06;;;;;;;32.30;19.70;;;;;;;10.32;66.12;100659.52;126239;1099;104201;-78
2021/10/21 03:52:34;;;;;;;33.47;19.97;;;;;;;10.28;66.44;100662.84;126340;1099;104272;-78
2021/10/21 03:55:02;;;;;;;33.87;19.87;;;;;;;10.25;66.24;100657.48;126267;1099;104303;-79
2021/10/21 03:57:30;;;;;;;36.50;19.93;;;;;;;10.23;66.40;100649.55;126315;1097;104146;-79
2021/10/21 03:59:58;;;;;;;33.30;19.27;;;;;;;10.22;66.96;100649.48;126294;1099;104189;-78
2021/10/21 04:02:26;;;;;;;33.23;20.03;;;;;;;10.18;66.95;100644.98;126185;1097;104172;-78
2021/10/21 04:04:54;;;;;;;35.67;19.10;;;;;;;10.16;66.76;100642.30;126180;1099;104264;-78
2021/10/21 04:07:21;;;;;;;31.43;19.00;;;;;;;10.16;66.73;100644.92;126272;1099;104130;-78
2021/10/21 04:09:49;;;;;;;33.17;19.53;;;;;;;10.16;66.52;100646.63;126240;1098;104144;-78
2021/10/21 04:12:17;;;;;;;33.90;20.33;;;;;;;10.15;67.09;100644.86;126254;1099;104344;-78
2021/10/21 04:14:45;;;;;;;35.27;20.17;;;;;;;10.11;67.13;100637.69;126243;1099;104207;-78
2021/10/21 04:17:13;;;;;;;32.83;19.83;;;;;;;10.06;66.91;100635.77;126320;1099;104181;-77
2021/10/21 04:19:41;;;;;;;33.83;19.63;;;;;;;10.05;66.94;100638.33;126317;1099;104156;-79
2021/10/21 04:22:08;;;;;;;28.70;17.43;;;;;;;10.04;67.61;100623.45;126280;1099;104348;-79
2021/10/21 04:24:36;;;;;;;29.53;17.77;;;;;;;10.04;67.30;100616.47;126211;1099;104191;-78
2021/10/21 04:27:04;;;;;;;36.67;18.27;;;;;;;10.05;67.23;100607.78;126231;1099;104207;-77
2021/10/21 04:29:32;;;;;;;31.90;19.30;;;;;;;10.07;67.61;100613.97;126352;1099;104142;-78
2021/10/21 04:32:00;;;;;;;32.80;17.70;;;;;;;10.10;67.66;100607.05;126350;1099;104246;-78
2021/10/21 04:34:28;;;;;;;35.90;18.85;;;;;;;10.11;67.72;100601.87;126231;1099;104162;-77
2021/10/21 04:36:56;;;;;;;42.23;18.70;;;;;;;10.12;67.83;100602.78;126341;1099;104137;-79
2021/10/21 04:39:23;;;;;;;35.13;19.47;;;;;;;10.11;67.54;100612.36;126336;1099;104130;-79
2021/10/21 04:41:51;;;;;;;37.73;18.83;;;;;;;10.11;67.36;100612.36;126357;1099;104137;-79
2021/10/21 04:44:19;;;;;;;34.40;17.80;;;;;;;10.13;67.16;100609.80;126314;1099;104172;-78
2021/10/21 04:46:47;;;;;;;29.73;17.40;;;;;;;10.14;67.87;100611.59;126268;1099;104284;-79
2021/10/21 04:49:16;;;;;;;29.70;17.07;;;;;;;10.15;67.31;100608.15;126323;1099;104191;-79
2021/10/21 04:51:47;;;;;;;31.60;17.60;;;;;;;10.16;67.91;100599.42;126309;1099;104191;-80
2021/10/21 04:54:15;;;;;;;34.33;17.03;;;;;;;10.19;67.58;100600.46;126259;1099;104267;-77
2021/10/21 04:56:44;;;;;;;34.70;17.87;;;;;;;10.21;67.48;100600.52;126218;1099;104140;-80
2021/10/21 04:59:11;;;;;;;30.93;17.30;;;;;;;10.23;67.80;100590.97;126250;1099;104169;-79
2021/10/21 05:01:39;;;;;;;30.43;17.80;;;;;;;10.25;67.58;100589.30;126230;1099;104673;-79
2021/10/21 05:04:09;;;;;;;32.70;17.27;;;;;;;10.27;67.69;100590.27;126179;1099;104130;-79
2021/10/21 05:06:37;;;;;;;30.17;17.43;;;;;;;10.29;68.04;100591.20;126233;1099;104165;-79
2021/10/21 05:09:04;;;;;;;31.57;17.37;;;;;;;10.32;67.63;100595.69;126223;1099;104175;-78
2021/10/21 05:11:32;;;;;;;32.27;17.33;;;;;;;10.36;67.39;100587.11;126213;1097;104310;-77
2021/10/21 05:14:00;;;;;;;32.90;17.97;;;;;;;10.39;67.60;100590.77;126222;1099;104238;-78
2021/10/21 05:16:28;;;;;;;31.67;16.47;;;;;;;10.42;67.75;100592.59;126094;1099;104165;-78
2021/10/21 05:18:59;;;;;;;28.10;16.60;;;;;;;10.43;67.39;100590.03;126143;1099;104294;-78
2021/10/21 05:21:27;;;;;;;28.50;16.57;;;;;;;10.47;67.49;100600.64;126183;1099;104162;-79
2021/10/21 05:23:57;;;;;;;28.37;17.60;;;;;;;10.49;67.42;100586.75;126204;1099;104153;-79
2021/10/21 05:26:30;;;;;;;32.50;17.10;;;;;;;10.50;67.85;100585.02;126170;1097;104156;-77
2021/10/21 05:29:00;;;;;;;28.30;16.13;;;;;;;10.50;68.00;100574.52;126062;1099;104307;-77
2021/10/21 05:31:30;;;;;;;26.77;16.30;;;;;;;10.52;68.06;100572.87;126152;1098;104236;-78
2021/10/21 05:33:59;;;;;;;29.90;17.03;;;;;;;10.54;67.36;100571.19;126174;1099;104153;-78
2021/10/21 05:36:31;;;;;;;29.37;16.03;;;;;;;10.57;67.77;100573.92;126231;1099;104172;-78
2021/10/21 05:39:01;;;;;;;27.03;16.33;;;;;;;10.61;67.53;100566.22;126244;1099;104149;-78
2021/10/21 05:41:30;;;;;;;27.30;16.17;;;;;;;10.66;67.64;100570.72;126036;1099;104150;-78
2021/10/21 05:44:01;;;;;;;27.97;16.60;;;;;;;10.70;67.54;100557.77;126139;1098;104198;-77
2021/10/21 05:46:32;;;;;;;27.37;15.97;;;;;;;10.75;67.70;100577.22;126082;1099;104390;-77
2021/10/21 05:49:04;;;;;;;28.20;15.95;;;;;;;10.82;67.98;100561.69;126003;1099;104306;-76
2021/10/21 05:51:36;;;;;;;26.27;14.73;;;;;;;10.87;68.06;100565.36;126203;1099;104287;-76
2021/10/21 05:54:06;;;;;;;28.43;14.87;;;;;;;10.92;67.51;100567.33;126133;1099;104201;-76
2021/10/21 05:56:34;;;;;;;28.37;15.23;;;;;;;10.98;67.96;100564.00;125862;1099;104172;-76
2021/10/21 05:59:03;;;;;;;30.87;16.03;;;;;;;11.05;67.96;100571.27;126056;1099;104139;-78
2021/10/21 06:01:35;;;;;;;28.50;15.07;;;;;;;11.12;67.51;100561.86;126075;1099;104140;-77
2021/10/21 06:04:09;;;;;;;25.70;13.10;;;;;;;11.20;67.52;100557.75;126164;1099;104293;-78
2021/10/21 06:06:41;;;;;;;25.27;13.80;;;;;;;11.27;67.27;100558.87;126082;1099;104155;-78
2021/10/21 06:09:12;;;;;;;27.20;15.20;;;;;;;11.35;67.54;100551.25;126182;1099;104191;-77
2021/10/21 06:11:44;;;;;;;;;;;;;;;11.43;67.16;100558.52;126176;1099;104245;-77
2021/10/21 06:14:16;;;;;;;29.90;15.13;;;;;;;11.53;67.17;100558.83;125988;1099;104325;-79
2021/10/21 06:16:49;;;;;;;25.80;14.50;;;;;;;11.63;67.15;100548.66;126046;1099;104212;-78
2021/10/21 06:19:21;;;;;;;29.72;14.40;;;;;;;11.75;66.93;100539.38;126187;1099;104197;-78
2021/10/21 06:21:57;;;;;;;25.73;14.20;;;;;;;11.86;66.60;100552.03;126320;1099;104166;-77
2021/10/21 06:24:26;;;;;;;27.57;14.13;;;;;;;12.00;66.88;100538.46;126137;1099;104630;-77
2021/10/21 06:26:57;;;;;;;25.17;14.87;;;;;;;12.11;66.85;100544.05;126088;1099;104364;-78
2021/10/21 06:29:28;;;;;;;25.77;14.00;;;;;;;12.24;66.83;100538.28;125978;1099;104213;-79
2021/10/21 06:31:57;;;;;;;25.00;14.07;;;;;;;12.33;66.53;100537.67;126074;1099;104270;-79
2021/10/21 06:34:26;;;;;;;24.47;13.37;;;;;;;12.42;66.36;100537.95;126050;1099;104198;-80
2021/10/21 06:36:56;;;;;;;24.80;14.13;;;;;;;12.52;66.32;100532.08;126085;1099;104269;-80
2021/10/21 06:39:33;;;;;;;26.97;14.67;;;;;;;12.62;66.26;100532.33;126143;1099;104140;-78
2021/10/21 06:42:07;;;;;;;24.67;13.98;;;;;;;12.72;66.03;100531.75;126114;1099;104191;-79
2021/10/21 06:44:39;;;;;;;24.23;12.70;;;;;;;12.84;65.89;100524.19;126260;1099;104168;-79
2021/10/21 06:47:10;;;;;;;22.13;12.40;;;;;;;12.96;65.42;100518.34;126002;1099;104271;-78
2021/10/21 06:49:42;;;;;;;24.63;13.47;;;;;;;13.07;65.53;100511.63;126192;1099;104194;-79
2021/10/21 06:52:12;;;;;;;23.90;13.40;;;;;;;13.18;65.13;100517.14;126101;1099;104275;-77
2021/10/21 06:54:42;;;;;;;24.33;13.23;;;;;;;13.28;64.88;100513.02;126091;1099;104156;-77
2021/10/21 06:57:12;;;;;;;22.80;13.10;;;;;;;13.37;64.71;100510.64;126014;1099;104291;-77
2021/10/21 06:59:44;;;;;;;21.40;12.20;;;;;;;13.44;64.46;100509.03;126079;1098;104168;-77
2021/10/21 07:02:12;;;;;;;26.37;13.37;;;;;;;13.51;64.49;100497.80;126159;1099;104255;-78
2021/10/21 07:07:27;;;;;;;23.83;12.98;;;;;;;13.70;63.80;100506.10;125065;1102;104293;-80
2021/10/21 07:09:59;;;;;;;24.97;11.83;;;;;;;13.76;63.94;100499.25;125209;1102;104160;-79
2021/10/21 07:12:33;;;;;;;26.40;12.40;;;;;;;13.83;63.86;100489.72;125249;1100;104159;-80
2021/10/21 07:15:02;;;;;;;19.93;11.37;;;;;;;13.91;63.60;100498.68;125265;1102;104432;-78
2021/10/21 07:17:33;;;;;;;22.07;12.00;;;;;;;13.95;63.07;100495.27;125188;1102;104549;-80
2021/10/21 07:20:03;;;;;;;23.40;12.57;;;;;;;14.01;62.70;100495.40;125104;1102;104217;-80
2021/10/21 07:22:34;;;;;;;25.83;11.90;;;;;;;14.10;62.42;100497.36;125209;1102;104269;-81
2021/10/21 07:25:06;;;;;;;25.33;12.57;;;;;;;14.19;63.05;100496.64;125173;1102;104197;-80
2021/10/21 07:27:35;;;;;;;19.73;11.30;;;;;;;14.28;61.86;100486.27;125212;1100;104285;-78
2021/10/21 07:30:07;;;;;;;20.87;11.63;;;;;;;14.37;62.35;100473.27;125128;1102;105508;-78
2021/10/21 07:32:38;;;;;;;25.17;12.37;;;;;;;14.47;61.97;100492.80;125141;1102;104299;-78
2021/10/21 07:35:11;;;;;;;20.50;11.30;;;;;;;14.59;62.11;100484.24;125062;1102;104185;-80
2021/10/21 07:37:41;;;;;;;21.13;11.10;;;;;;;14.68;61.47;100480.94;124927;1103;104184;-80
2021/10/21 07:40:12;;;;;;;23.57;11.70;;;;;;;14.78;60.92;100482.86;125221;1102;104235;-80
2021/10/21 07:42:44;;;;;;;19.97;10.27;;;;;;;14.90;61.48;100479.56;125209;1102;104188;-80
2021/10/21 07:45:16;;;;;;;23.70;11.30;;;;;;;15.01;61.14;100475.34;125533;1102;104395;-80
2021/10/21 07:47:49;;;;;;;20.60;10.73;;;;;;;15.12;60.79;100474.66;125989;1099;104274;-79
2021/10/21 07:50:21;;;;;;;22.53;11.47;;;;;;;15.21;60.49;100474.80;125958;1099;104408;-78
2021/10/21 07:52:53;;;;;;;19.70;10.45;;;;;;;15.30;59.53;100461.70;125301;1099;104358;-77
2021/10/21 07:55:23;;;;;;;22.60;11.33;;;;;;;15.41;59.50;100457.50;125225;1099;104347;-79
2021/10/21 07:57:52;;;;;;;20.33;11.07;;;;;;;15.52;59.64;100455.02;126012;1099;104190;-81
2021/10/21 08:00:38;;;;;;;20.33;10.37;;;;;;;15.62;59.15;100450.74;125437;1099;104910;-79
2021/10/21 08:03:12;;;;;;;21.47;10.77;;;;;;;15.76;59.47;100443.87;125330;1102;104163;-79
2021/10/21 08:05:48;;;;;;;23.00;11.30;;;;;;;15.91;58.68;100434.39;126086;1099;104144;-80
2021/10/21 08:08:21;;;;;;;21.13;10.63;;;;;;;16.02;57.86;100438.09;126062;1099;104233;-80
2021/10/21 08:10:53;;;;;;;24.13;10.27;;;;;;;16.13;57.89;100428.51;126039;1099;104332;-80
2021/10/21 08:13:30;;;;;;;21.97;10.90;;;;;;;16.24;57.41;100420.69;126088;1099;104242;-79
2021/10/21 08:16:01;;;;;;;21.00;9.93;;;;;;;16.38;57.42;100422.58;126241;1099;104146;-79
2021/10/21 08:18:34;;;;;;;17.70;9.70;;;;;;;16.48;58.03;100414.75;126265;1099;104252;-80
2021/10/21 08:21:10;;;;;;;20.07;9.33;;;;;;;16.59;57.60;100409.56;126187;1099;107638;-80
2021/10/21 08:23:41;;;;;;;17.67;9.50;;;;;;;16.74;57.52;100406.19;126128;1096;104174;-80
2021/10/21 08:26:14;;;;;;;18.17;9.30;;;;;;;16.80;55.25;100403.59;126157;1099;104676;-78
2021/10/21 08:28:46;;;;;;;17.87;9.57;;;;;;;16.91;55.12;100386.91;126275;1099;104312;-78
2021/10/21 08:31:18;;;;;;;17.00;9.03;;;;;;;17.00;55.28;100394.93;126196;1098;104140;-78
2021/10/21 08:33:53;;;;;;;26.13;9.27;;;;;;;17.07;55.01;100383.51;126074;1098;104395;-77
2021/10/21 08:36:26;;;;;;;19.20;9.87;;;;;;;17.16;54.38;100382.70;126108;1099;104140;-78
2021/10/21 08:38:57;;;;;;;18.63;8.77;;;;;;;17.29;54.92;100376.58;126040;1099;104137;-79
2021/10/21 08:41:25;;;;;;;19.33;9.27;;;;;;;17.37;53.80;100376.63;126004;1099;104353;-77
2021/10/21 08:43:54;;;;;;;17.70;8.43;;;;;;;17.48;54.26;100368.73;126124;1099;104224;-77
2021/10/21 08:46:30;;;;;;;16.70;8.87;;;;;;;17.55;53.68;100368.77;126141;1099;104149;-78
2021/10/21 08:49:02;;;;;;;17.77;8.43;;;;;;;17.67;53.62;100380.31;126080;1099;104166;-79
2021/10/21 08:51:35;;;;;;;21.27;9.03;;;;;;;17.71;52.27;100364.42;126125;1099;104290;-78
2021/10/21 08:54:06;;;;;;;19.98;8.25;;;;;;;17.77;50.79;100356.48;126199;1099;104134;-79
2021/10/21 08:56:39;;;;;;;17.30;8.70;;;;;;;17.84;51.34;100352.11;126218;1099;104210;-79
2021/10/21 08:59:15;;;;;;;19.33;9.17;;;;;;;17.95;51.18;100346.84;126195;1099;104143;-78
2021/10/21 09:01:59;;;;;;;17.77;8.27;;;;;;;18.03;51.44;100337.15;126188;1099;104268;-80
2021/10/21 09:04:53;;;;;;;18.55;8.58;;;;;;;18.07;49.99;100338.91;126199;1099;104137;-80
2021/10/21 09:10:11;;;;;;;13.70;7.35;;;;;;;18.19;48.47;100323.91;126225;1099;104149;-78
2021/10/21 09:12:44;;;;;;;17.73;8.20;;;;;;;18.27;49.39;100330.98;126045;1099;104147;-78
2021/10/21 09:15:16;;;;;;;15.80;7.20;;;;;;;18.38;48.18;100322.16;126294;1099;104143;-79
2021/10/21 09:17:50;;;;;;;18.27;8.53;;;;;;;18.43;48.15;100315.06;126116;1099;105294;-79
2021/10/21 09:20:26;;;;;;;16.03;8.70;;;;;;;18.43;49.04;100302.69;126067;1098;105635;-79
2021/10/21 09:23:06;;;;;;;17.97;8.70;;;;;;;18.54;47.75;100313.28;126013;1099;101937;-80
2021/10/21 09:25:43;;;;;;;17.00;8.47;;;;;;;18.63;47.80;100309.75;126119;1099;104295;-81
2021/10/21 09:28:31;;;;;;;19.33;8.17;;;;;;;18.74;48.54;100307.09;126066;1100;104200;-81
2021/10/21 09:31:08;;;;;;;19.40;8.15;;;;;;;18.77;48.03;100292.02;125958;1099;105648;-81
2021/10/21 09:33:58;;;;;;;21.03;8.20;;;;;;;18.83;47.51;100289.36;126205;1099;104133;-81
2021/10/21 09:36:34;;;;;;;14.40;8.20;;;;;;;18.85;47.22;100292.05;126117;1099;102367;-78
2021/10/21 09:39:13;;;;;;;23.70;8.87;;;;;;;18.98;47.84;100288.48;126197;1099;104517;-79
2021/10/21 09:41:46;;;;;;;21.50;7.47;;;;;;;19.07;46.28;100263.63;126125;1099;104153;-79
2021/10/21 09:44:33;;;;;;;16.10;7.47;;;;;;;19.20;47.28;100278.67;126232;1097;104146;-79
2021/10/21 09:47:15;;;;;;;18.80;7.67;;;;;;;19.27;45.38;100260.91;126066;1099;104325;-79
2021/10/21 09:49:53;;;;;;;23.20;8.17;;;;;;;19.36;46.26;100268.85;126228;1099;104586;-79
2021/10/21 09:52:25;;;;;;;21.87;8.37;;;;;;;19.45;46.01;100261.74;126164;1099;104239;-78
2021/10/21 09:54:55;;;;;;;19.47;7.67;;;;;;;19.55;46.30;100260.79;126270;1099;104278;-80
2021/10/21 09:57:31;;;;;;;19.37;7.67;;;;;;;19.61;44.91;100252.77;126160;1099;104469;-78
2021/10/21 10:00:07;;;;;;;17.20;7.67;;;;;;;19.72;45.11;100250.05;126166;1099;104149;-79
2021/10/21 10:03:10;;;;;;;15.50;7.20;;;;;;;19.82;45.31;100241.17;126147;1098;104117;-80
2021/10/21 10:05:41;;;;;;;14.93;7.23;;;;;;;19.88;43.48;100224.25;125951;1098;104152;-79
2021/10/21 10:08:12;;;;;;;27.43;7.80;;;;;;;19.98;44.37;100231.28;125960;1099;104146;-79
2021/10/21 10:10:48;;;;;;;16.93;8.20;;;;;;;20.03;44.09;100218.81;125960;1097;104149;-80
2021/10/21 10:13:22;;;;;;;15.23;8.10;;;;;;;20.12;43.49;100223.20;125700;1099;104207;-80
2021/10/21 10:15:56;;;;;;;16.93;8.00;;;;;;;20.19;43.38;100216.03;125788;1099;104278;-80
2021/10/21 10:18:28;;;;;;;20.00;7.77;;;;;;;20.22;43.41;100213.34;125772;1099;104255;-79
2021/10/21 10:21:21;;;;;;;19.20;7.73;;;;;;;20.31;43.35;100202.61;125872;1099;104211;-79
2021/10/21 10:24:13;;;;;;;17.53;7.83;;;;;;;20.43;43.59;100202.49;125314;1099;110979;-81
2021/10/21 10:26:45;;;;;;;14.53;7.00;;;;;;;20.51;43.36;100206.87;125899;1099;104206;-81
2021/10/21 10:29:16;;;;;;;13.93;7.23;;;;;;;20.55;41.29;100185.48;125926;1099;102406;-79
2021/10/21 10:31:49;;;;;;;12.80;6.70;;;;;;;20.55;40.04;100173.95;126001;1099;104297;-78
2021/10/21 10:34:44;;;;;;;19.20;6.95;;;;;;;20.55;40.31;100168.61;126022;1099;104143;-79
2021/10/21 10:37:39;;;;;;;21.70;7.33;;;;;;;20.59;41.27;100170.36;126029;1099;104239;-79
2021/10/21 10:40:10;;;;;;;14.93;6.80;;;;;;;20.62;41.23;100167.66;125968;1099;104274;-78
2021/10/21 10:43:00;;;;;;;19.07;7.40;;;;;;;20.64;40.29;100174.75;126008;1099;104140;-79
2021/10/21 10:45:44;;;;;;;13.63;6.67;;;;;;;20.59;41.24;100175.69;126111;1099;104303;-79
2021/10/21 10:48:13;;;;;;;14.87;6.50;;;;;;;20.57;40.74;100166.80;126274;1099;104140;-79
2021/10/21 10:50:56;;;;;;;15.13;6.50;;;;;;;20.54;40.41;100167.73;126093;1099;104235;-80
2021/10/21 10:53:47;;;;;;;13.80;6.10;;;;;;;20.45;39.05;100170.50;126256;1099;104156;-79
2021/10/21 10:56:43;;;;;;;16.15;6.80;;;;;;;20.35;38.76;100163.48;126209;1099;104220;-79
2021/10/21 10:59:30;;;;;;;20.67;7.00;;;;;;;20.34;38.11;100162.61;126168;1099;104780;-79
2021/10/21 11:02:30;;;;;;;15.53;6.33;;;;;;;20.38;39.11;100159.03;126244;1099;104156;-80
2021/10/21 11:05:56;;;;;;;14.93;6.47;;;;;;;20.41;37.17;100161.66;125474;1100;111807;-80
2021/10/21 11:08:52;;;;;;;13.13;6.70;;;;;;;20.46;39.99;100167.82;125427;1099;104444;-79
2021/10/21 11:11:50;;;;;;;16.87;7.07;;;;;;;20.45;38.49;100154.51;125420;1099;104355;-79
2021/10/21 11:14:43;;;;;;;13.43;6.60;;;;;;;20.46;39.45;100153.63;125356;1099;104406;-79
2021/10/21 11:17:47;;;;;;;18.40;6.83;;;;;;;20.49;39.05;100158.92;126077;1098;104169;-78
2021/10/21 11:20:40;;;;;;;14.33;6.20;;;;;;;20.52;38.75;100150.89;125459;1102;104319;-79
2021/10/21 11:23:49;;;;;;;;;;;;;;;;;;;;;
2021/10/21 11:26:38;;;;;;;14.73;6.70;;;;;;;20.54;38.20;100145.55;126069;1099;118670;-80